NOZ1972 ENEV-ENGM
Flight info
| Callsign | NOZ1972 |
|---|---|
| Flight time | N/A |
| Altitude | 36000 |
| Route | AMIMO DCT SOMUB DCT ABUNO DCT INREX |
| Aircraft | B738/M-SDE2E3FGHIRWXY/LB1 |
Departure
| Time | 2026-04-23 15:16 |
|---|---|
| Airport | Harstad/Narvik Airport (ENEV) |
Arrival
| Time | N/A |
|---|---|
| Airport | Oslo-Gardermoen International Airport (ENGM) |
| Time | Latitude | Longitude | Altitude | Speed | Heading |
|---|---|---|---|---|---|
| 2026-04-23 14:03 | 68.48972 | 16.68618 | 92 ft | 0 kts | 355° |
| 2026-04-23 15:08 | 68.48953 | 16.68622 | 93 ft | 4 kts | 357° |
| 2026-04-23 15:09 | 68.48900 | 16.68639 | 94 ft | 4 kts | 343° |
| 2026-04-23 15:09 | 68.48882 | 16.68654 | 93 ft | 0 kts | 342° |
| 2026-04-23 15:11 | 68.48884 | 16.68647 | 93 ft | 1 kts | 314° |
| 2026-04-23 15:12 | 68.48889 | 16.68606 | 94 ft | 4 kts | 288° |
| 2026-04-23 15:12 | 68.48891 | 16.68502 | 92 ft | 6 kts | 270° |
| 2026-04-23 15:12 | 68.48890 | 16.68366 | 92 ft | 8 kts | 269° |
| 2026-04-23 15:12 | 68.48906 | 16.68236 | 93 ft | 7 kts | 317° |
| 2026-04-23 15:13 | 68.48956 | 16.68205 | 92 ft | 9 kts | 357° |
| 2026-04-23 15:13 | 68.49029 | 16.68198 | 92 ft | 12 kts | 358° |
| 2026-04-23 15:13 | 68.49128 | 16.68188 | 93 ft | 16 kts | 358° |
| 2026-04-23 15:13 | 68.49249 | 16.68176 | 95 ft | 19 kts | 357° |
| 2026-04-23 15:14 | 68.49390 | 16.68161 | 95 ft | 22 kts | 358° |
| 2026-04-23 15:14 | 68.49552 | 16.68144 | 92 ft | 25 kts | 358° |
| 2026-04-23 15:14 | 68.49732 | 16.68121 | 93 ft | 27 kts | 358° |
| 2026-04-23 15:14 | 68.49929 | 16.68097 | 95 ft | 29 kts | 357° |
| 2026-04-23 15:15 | 68.50129 | 16.68075 | 96 ft | 28 kts | 357° |
| 2026-04-23 15:15 | 68.50308 | 16.68053 | 94 ft | 19 kts | 355° |
| 2026-04-23 15:15 | 68.50380 | 16.67812 | 94 ft | 16 kts | 270° |
| 2026-04-23 15:15 | 68.50309 | 16.67698 | 96 ft | 13 kts | 178° |
| 2026-04-23 15:16 | 68.50211 | 16.67706 | 96 ft | 25 kts | 178° |
| 2026-04-23 15:16 | 68.49718 | 16.67762 | 97 ft | 114 kts | 178° |
| 2026-04-23 15:16 | 68.48695 | 16.67836 | 378 ft | 159 kts | 182° |
| 2026-04-23 15:16 | 68.47618 | 16.67890 | 1458 ft | 159 kts | 180° |
| 2026-04-23 15:17 | 68.46376 | 16.68051 | 2059 ft | 188 kts | 179° |
| 2026-04-23 15:17 | 68.44950 | 16.68171 | 2573 ft | 219 kts | 181° |
| 2026-04-23 15:17 | 68.43385 | 16.68709 | 2953 ft | 242 kts | 159° |
| 2026-04-23 15:17 | 68.42021 | 16.71608 | 3316 ft | 259 kts | 130° |
| 2026-04-23 15:18 | 68.40661 | 16.75177 | 3744 ft | 280 kts | 141° |
| 2026-04-23 15:18 | 68.39114 | 16.78485 | 4653 ft | 284 kts | 140° |
| 2026-04-23 15:18 | 68.37593 | 16.81983 | 5523 ft | 288 kts | 139° |
| 2026-04-23 15:18 | 68.36069 | 16.85532 | 6393 ft | 291 kts | 140° |
| 2026-04-23 15:19 | 68.34335 | 16.88406 | 7049 ft | 297 kts | 167° |
| 2026-04-23 15:19 | 68.32293 | 16.88529 | 7607 ft | 296 kts | 202° |
| 2026-04-23 15:19 | 68.30405 | 16.86437 | 8437 ft | 294 kts | 210° |
| 2026-04-23 15:19 | 68.28476 | 16.84395 | 9219 ft | 302 kts | 208° |
| 2026-04-23 15:20 | 68.26486 | 16.82400 | 9966 ft | 307 kts | 208° |
| 2026-04-23 15:20 | 68.24469 | 16.80384 | 10383 ft | 324 kts | 208° |
| 2026-04-23 15:20 | 68.22273 | 16.78175 | 10584 ft | 348 kts | 208° |
| 2026-04-23 15:20 | 68.19947 | 16.75846 | 10966 ft | 363 kts | 207° |
| 2026-04-23 15:21 | 68.17547 | 16.73479 | 11564 ft | 371 kts | 208° |
| 2026-04-23 15:21 | 68.15102 | 16.71069 | 12256 ft | 377 kts | 208° |
| 2026-04-23 15:21 | 68.12622 | 16.68624 | 12936 ft | 382 kts | 209° |
| 2026-04-23 15:21 | 68.10110 | 16.66152 | 13623 ft | 387 kts | 209° |
| 2026-04-23 15:22 | 68.07561 | 16.63646 | 14074 ft | 395 kts | 209° |
| 2026-04-23 15:22 | 68.04963 | 16.61093 | 14677 ft | 399 kts | 209° |
| 2026-04-23 15:22 | 68.02340 | 16.58525 | 15281 ft | 402 kts | 209° |
| 2026-04-23 15:22 | 67.99704 | 16.55950 | 15998 ft | 405 kts | 209° |
| 2026-04-23 15:23 | 67.97038 | 16.53351 | 16599 ft | 410 kts | 210° |
| 2026-04-23 15:23 | 67.94341 | 16.50722 | 17187 ft | 416 kts | 210° |
| 2026-04-23 15:23 | 67.91603 | 16.48059 | 17776 ft | 421 kts | 210° |
| 2026-04-23 15:23 | 67.88869 | 16.45412 | 18404 ft | 425 kts | 210° |
| 2026-04-23 15:24 | 67.86087 | 16.42649 | 18894 ft | 427 kts | 212° |
| 2026-04-23 15:24 | 67.83368 | 16.39494 | 19430 ft | 427 kts | 216° |
| 2026-04-23 15:24 | 67.80684 | 16.36130 | 19982 ft | 428 kts | 217° |
| 2026-04-23 15:24 | 67.77998 | 16.32691 | 20543 ft | 431 kts | 217° |
| 2026-04-23 15:25 | 67.75285 | 16.29225 | 21051 ft | 434 kts | 217° |
| 2026-04-23 15:25 | 67.72545 | 16.25765 | 21549 ft | 438 kts | 217° |
| 2026-04-23 15:25 | 67.69778 | 16.22315 | 22012 ft | 442 kts | 216° |
| 2026-04-23 15:25 | 67.66977 | 16.18865 | 22484 ft | 446 kts | 216° |
| 2026-04-23 15:26 | 67.64154 | 16.15416 | 23020 ft | 448 kts | 216° |
| 2026-04-23 15:26 | 67.61318 | 16.11980 | 23511 ft | 451 kts | 216° |
| 2026-04-23 15:26 | 67.58458 | 16.08526 | 23897 ft | 453 kts | 216° |
| 2026-04-23 15:26 | 67.55582 | 16.05060 | 24282 ft | 457 kts | 216° |
| 2026-04-23 15:27 | 67.52678 | 16.01568 | 24683 ft | 460 kts | 216° |
| 2026-04-23 15:27 | 67.49756 | 15.98066 | 25113 ft | 462 kts | 216° |
| 2026-04-23 15:27 | 67.46829 | 15.94572 | 25487 ft | 464 kts | 216° |
| 2026-04-23 15:27 | 67.43887 | 15.91066 | 25859 ft | 466 kts | 216° |
| 2026-04-23 15:28 | 67.40926 | 15.87542 | 26174 ft | 469 kts | 215° |
| 2026-04-23 15:28 | 67.37955 | 15.84016 | 26599 ft | 469 kts | 214° |
| 2026-04-23 15:28 | 67.34980 | 15.80500 | 27005 ft | 471 kts | 214° |
| 2026-04-23 15:28 | 67.31992 | 15.76975 | 27354 ft | 474 kts | 214° |
| 2026-04-23 15:29 | 67.28978 | 15.73424 | 27703 ft | 477 kts | 214° |
| 2026-04-23 15:29 | 67.25951 | 15.69869 | 28063 ft | 479 kts | 214° |
| 2026-04-23 15:29 | 67.22903 | 15.66302 | 28393 ft | 482 kts | 214° |
| 2026-04-23 15:29 | 67.19882 | 15.62778 | 28807 ft | 482 kts | 214° |
| 2026-04-23 15:30 | 67.16830 | 15.59235 | 29293 ft | 482 kts | 214° |
| 2026-04-23 15:30 | 67.13771 | 15.55689 | 29616 ft | 484 kts | 214° |
| 2026-04-23 15:30 | 67.10689 | 15.52119 | 29843 ft | 488 kts | 214° |
| 2026-04-23 15:30 | 67.07587 | 15.48535 | 30082 ft | 490 kts | 214° |
| 2026-04-23 15:31 | 67.04466 | 15.44941 | 30343 ft | 492 kts | 214° |
| 2026-04-23 15:31 | 67.01338 | 15.41352 | 30625 ft | 493 kts | 214° |
| 2026-04-23 15:31 | 66.98209 | 15.37779 | 30965 ft | 492 kts | 214° |
| 2026-04-23 15:31 | 66.95085 | 15.34223 | 31339 ft | 490 kts | 214° |
| 2026-04-23 15:32 | 66.91968 | 15.30683 | 31686 ft | 490 kts | 213° |
| 2026-04-23 15:32 | 66.88892 | 15.27195 | 31971 ft | 490 kts | 213° |
| 2026-04-23 15:32 | 66.85742 | 15.23630 | 32249 ft | 490 kts | 213° |
| 2026-04-23 15:32 | 66.82624 | 15.20111 | 32567 ft | 489 kts | 213° |
| 2026-04-23 15:33 | 66.79520 | 15.16620 | 32868 ft | 487 kts | 213° |
| 2026-04-23 15:33 | 66.76464 | 15.13197 | 33336 ft | 483 kts | 213° |
| 2026-04-23 15:33 | 66.73395 | 15.09768 | 33696 ft | 482 kts | 212° |
| 2026-04-23 15:33 | 66.70324 | 15.06339 | 33926 ft | 483 kts | 212° |
| 2026-04-23 15:34 | 66.67241 | 15.02902 | 34126 ft | 484 kts | 212° |
| 2026-04-23 15:34 | 66.64153 | 14.99471 | 34354 ft | 483 kts | 212° |
| 2026-04-23 15:34 | 66.61068 | 14.96054 | 34598 ft | 483 kts | 212° |
| 2026-04-23 15:34 | 66.57995 | 14.92662 | 34809 ft | 483 kts | 212° |
| 2026-04-23 15:35 | 66.54948 | 14.89306 | 34966 ft | 484 kts | 212° |
| 2026-04-23 15:35 | 66.51862 | 14.85918 | 35127 ft | 484 kts | 211° |
| 2026-04-23 15:35 | 66.48789 | 14.82556 | 35399 ft | 479 kts | 211° |
| 2026-04-23 15:35 | 66.45745 | 14.79240 | 35667 ft | 477 kts | 211° |
| 2026-04-23 15:36 | 66.42687 | 14.75911 | 35849 ft | 478 kts | 211° |
| 2026-04-23 15:36 | 66.39636 | 14.72595 | 36011 ft | 479 kts | 211° |
| 2026-04-23 15:36 | 66.36568 | 14.69264 | 36000 ft | 483 kts | 211° |
| 2026-04-23 15:37 | 66.30395 | 14.62600 | 36010 ft | 482 kts | 211° |
| 2026-04-23 15:37 | 66.25302 | 14.57141 | 36004 ft | 477 kts | 211° |
| 2026-04-23 15:38 | 66.18239 | 14.49604 | 35996 ft | 474 kts | 211° |
| 2026-04-23 15:38 | 66.12195 | 14.43187 | 36009 ft | 472 kts | 211° |
| 2026-04-23 15:39 | 66.06159 | 14.36805 | 36030 ft | 472 kts | 210° |
| 2026-04-23 15:39 | 66.00111 | 14.30443 | 36015 ft | 474 kts | 210° |
| 2026-04-23 15:40 | 65.94044 | 14.24098 | 36020 ft | 474 kts | 210° |
| 2026-04-23 15:40 | 65.87974 | 14.17786 | 36009 ft | 473 kts | 210° |
| 2026-04-23 15:41 | 65.81884 | 14.11482 | 36018 ft | 478 kts | 210° |
| 2026-04-23 15:41 | 65.75712 | 14.05119 | 36038 ft | 486 kts | 210° |
| 2026-04-23 15:42 | 65.69437 | 13.98688 | 36045 ft | 492 kts | 210° |
| 2026-04-23 15:42 | 65.63125 | 13.92261 | 36042 ft | 497 kts | 210° |
| 2026-04-23 15:43 | 65.56720 | 13.85777 | 36035 ft | 500 kts | 209° |
| 2026-04-23 15:43 | 65.50284 | 13.79297 | 36040 ft | 502 kts | 209° |
| 2026-04-23 15:44 | 65.43829 | 13.72833 | 36032 ft | 500 kts | 209° |
| 2026-04-23 15:44 | 65.37446 | 13.66473 | 36051 ft | 499 kts | 209° |
| 2026-04-23 15:45 | 65.31025 | 13.60102 | 36027 ft | 500 kts | 208° |
| 2026-04-23 15:45 | 65.24603 | 13.53767 | 36051 ft | 499 kts | 208° |
| 2026-04-23 15:46 | 65.18181 | 13.47465 | 36040 ft | 498 kts | 208° |
| 2026-04-23 15:46 | 65.11768 | 13.41204 | 36059 ft | 498 kts | 208° |
| 2026-04-23 15:47 | 65.05360 | 13.34980 | 36052 ft | 498 kts | 208° |
| 2026-04-23 15:47 | 64.98974 | 13.28810 | 36055 ft | 498 kts | 208° |
| 2026-04-23 15:48 | 64.92558 | 13.22644 | 36048 ft | 498 kts | 208° |
| 2026-04-23 15:48 | 64.86145 | 13.16513 | 36074 ft | 497 kts | 208° |
| 2026-04-23 15:49 | 64.79721 | 13.10403 | 36067 ft | 497 kts | 208° |
| 2026-04-23 15:49 | 64.73334 | 13.04363 | 36081 ft | 491 kts | 208° |
| 2026-04-23 15:50 | 64.67023 | 12.98426 | 36089 ft | 487 kts | 207° |
| 2026-04-23 15:50 | 64.60713 | 12.92509 | 36102 ft | 488 kts | 207° |
| 2026-04-23 15:51 | 64.54438 | 12.86656 | 36112 ft | 489 kts | 207° |
| 2026-04-23 15:51 | 64.48115 | 12.80790 | 36111 ft | 490 kts | 207° |
| 2026-04-23 15:52 | 64.41781 | 12.74945 | 36086 ft | 490 kts | 207° |
| 2026-04-23 15:52 | 64.36475 | 12.70072 | 36117 ft | 489 kts | 207° |
| 2026-04-23 15:53 | 64.30185 | 12.64321 | 36195 ft | 489 kts | 207° |
| 2026-04-23 15:53 | 64.23854 | 12.58559 | 36276 ft | 489 kts | 207° |
| 2026-04-23 15:54 | 64.17519 | 12.52823 | 36346 ft | 489 kts | 207° |
| 2026-04-23 15:54 | 64.11184 | 12.47114 | 36404 ft | 489 kts | 207° |
| 2026-04-23 15:55 | 64.04837 | 12.41424 | 36415 ft | 489 kts | 207° |
| 2026-04-23 15:55 | 63.98544 | 12.35808 | 36388 ft | 489 kts | 207° |
| 2026-04-23 15:55 | 63.95373 | 12.32989 | 36139 ft | 489 kts | 206° |
| 2026-04-23 15:56 | 63.92207 | 12.30181 | 36146 ft | 489 kts | 206° |
| 2026-04-23 15:56 | 63.85855 | 12.24568 | 36141 ft | 489 kts | 206° |
| 2026-04-23 15:57 | 63.79522 | 12.19002 | 36151 ft | 486 kts | 206° |
| 2026-04-23 15:57 | 63.73212 | 12.13480 | 36150 ft | 485 kts | 206° |
| 2026-04-23 15:58 | 63.66920 | 12.07998 | 36156 ft | 485 kts | 206° |
| 2026-04-23 15:58 | 63.60667 | 12.02576 | 36168 ft | 485 kts | 206° |
| 2026-04-23 15:59 | 63.54372 | 11.97144 | 36155 ft | 485 kts | 206° |
| 2026-04-23 15:59 | 63.48067 | 11.91729 | 36167 ft | 485 kts | 206° |
| 2026-04-23 16:00 | 63.41762 | 11.86337 | 36178 ft | 485 kts | 206° |
| 2026-04-23 16:00 | 63.35350 | 11.81551 | 36170 ft | 493 kts | 195° |
| 2026-04-23 16:01 | 63.28445 | 11.80858 | 36198 ft | 502 kts | 180° |
| 2026-04-23 16:01 | 63.21509 | 11.81814 | 36178 ft | 503 kts | 180° |
| 2026-04-23 16:02 | 63.14525 | 11.82638 | 36187 ft | 503 kts | 181° |
| 2026-04-23 16:02 | 63.07532 | 11.83367 | 36184 ft | 503 kts | 181° |
| 2026-04-23 16:03 | 63.00526 | 11.84073 | 36178 ft | 504 kts | 181° |
| 2026-04-23 16:03 | 62.93527 | 11.84780 | 36169 ft | 504 kts | 181° |
| 2026-04-23 16:04 | 62.86524 | 11.85490 | 36181 ft | 503 kts | 181° |
| 2026-04-23 16:04 | 62.79530 | 11.86197 | 36179 ft | 503 kts | 181° |
| 2026-04-23 16:05 | 62.73714 | 11.86782 | 36178 ft | 503 kts | 181° |
| 2026-04-23 16:05 | 62.65534 | 11.87600 | 36176 ft | 503 kts | 181° |
| 2026-04-23 16:06 | 62.58531 | 11.88297 | 36166 ft | 504 kts | 181° |
| 2026-04-23 16:06 | 62.51491 | 11.88993 | 36177 ft | 507 kts | 181° |
| 2026-04-23 16:07 | 62.44426 | 11.89689 | 36172 ft | 509 kts | 181° |
| 2026-04-23 16:07 | 62.37343 | 11.90386 | 36168 ft | 510 kts | 181° |
| 2026-04-23 16:08 | 62.30240 | 11.91080 | 36139 ft | 511 kts | 181° |
| 2026-04-23 16:08 | 62.23163 | 11.91769 | 36154 ft | 511 kts | 180° |
| 2026-04-23 16:09 | 62.16060 | 11.92458 | 36159 ft | 510 kts | 180° |
| 2026-04-23 16:09 | 62.08970 | 11.93141 | 36153 ft | 510 kts | 180° |
| 2026-04-23 16:10 | 62.01865 | 11.93821 | 36152 ft | 510 kts | 180° |
| 2026-04-23 16:10 | 61.94850 | 11.95084 | 36139 ft | 507 kts | 175° |
| 2026-04-23 16:11 | 61.87879 | 11.97258 | 36143 ft | 506 kts | 173° |
| 2026-04-23 16:11 | 61.81024 | 11.99430 | 36088 ft | 485 kts | 174° |
| 2026-04-23 16:11 | 61.77721 | 12.00424 | 35953 ft | 474 kts | 174° |
| 2026-04-23 16:12 | 61.74468 | 12.01371 | 35422 ft | 473 kts | 175° |
| 2026-04-23 16:12 | 61.71190 | 12.02303 | 34754 ft | 477 kts | 175° |
| 2026-04-23 16:12 | 61.67892 | 12.03231 | 34196 ft | 477 kts | 175° |
| 2026-04-23 16:12 | 61.64628 | 12.04151 | 33930 ft | 469 kts | 175° |
| 2026-04-23 16:13 | 61.61412 | 12.05059 | 33579 ft | 463 kts | 175° |
| 2026-04-23 16:13 | 61.55051 | 12.06850 | 32633 ft | 460 kts | 175° |
| 2026-04-23 16:13 | 61.51881 | 12.07739 | 32127 ft | 459 kts | 174° |
| 2026-04-23 16:14 | 61.48748 | 12.08617 | 31564 ft | 461 kts | 174° |
| 2026-04-23 16:14 | 61.45541 | 12.09515 | 31137 ft | 458 kts | 175° |
| 2026-04-23 16:14 | 61.42434 | 12.10385 | 30786 ft | 454 kts | 175° |
| 2026-04-23 16:14 | 61.39305 | 12.11260 | 30421 ft | 451 kts | 175° |
| 2026-04-23 16:15 | 61.36199 | 12.12126 | 30015 ft | 448 kts | 174° |
| 2026-04-23 16:15 | 61.33120 | 12.12982 | 29612 ft | 444 kts | 174° |
| 2026-04-23 16:15 | 61.30075 | 12.13827 | 29190 ft | 440 kts | 174° |
| 2026-04-23 16:15 | 61.27047 | 12.14665 | 28735 ft | 438 kts | 174° |
| 2026-04-23 16:16 | 61.24030 | 12.15498 | 28300 ft | 435 kts | 174° |
| 2026-04-23 16:16 | 61.21045 | 12.16321 | 27884 ft | 432 kts | 174° |
| 2026-04-23 16:16 | 61.18066 | 12.17141 | 27465 ft | 429 kts | 174° |
| 2026-04-23 16:16 | 61.15116 | 12.17952 | 27055 ft | 426 kts | 174° |
| 2026-04-23 16:17 | 61.12187 | 12.18754 | 26659 ft | 423 kts | 174° |
| 2026-04-23 16:17 | 61.09276 | 12.19551 | 26276 ft | 421 kts | 174° |
| 2026-04-23 16:17 | 61.06371 | 12.20345 | 25891 ft | 418 kts | 174° |
| 2026-04-23 16:17 | 61.03490 | 12.21131 | 25518 ft | 416 kts | 174° |
| 2026-04-23 16:18 | 61.00639 | 12.21677 | 25240 ft | 408 kts | 185° |
| 2026-04-23 16:18 | 60.97908 | 12.20958 | 25055 ft | 396 kts | 194° |
| 2026-04-23 16:18 | 60.95210 | 12.19938 | 24752 ft | 392 kts | 194° |
| 2026-04-23 16:18 | 60.92520 | 12.18965 | 24353 ft | 392 kts | 193° |
| 2026-04-23 16:19 | 60.89827 | 12.18045 | 23972 ft | 392 kts | 192° |
| 2026-04-23 16:19 | 60.87142 | 12.17168 | 23633 ft | 390 kts | 192° |
| 2026-04-23 16:19 | 60.84461 | 12.16316 | 23263 ft | 387 kts | 192° |
| 2026-04-23 16:19 | 60.81810 | 12.15481 | 22886 ft | 385 kts | 192° |
| 2026-04-23 16:20 | 60.79168 | 12.14650 | 22500 ft | 383 kts | 192° |
| 2026-04-23 16:20 | 60.76541 | 12.13824 | 22081 ft | 381 kts | 192° |
| 2026-04-23 16:20 | 60.73916 | 12.13002 | 21693 ft | 380 kts | 192° |
| 2026-04-23 16:20 | 60.71303 | 12.12186 | 21336 ft | 378 kts | 192° |
| 2026-04-23 16:21 | 60.68706 | 12.11376 | 20981 ft | 376 kts | 192° |
| 2026-04-23 16:21 | 60.66120 | 12.10571 | 20628 ft | 374 kts | 192° |
| 2026-04-23 16:21 | 60.63553 | 12.09773 | 20286 ft | 373 kts | 192° |
| 2026-04-23 16:21 | 60.61027 | 12.08988 | 19953 ft | 371 kts | 192° |
| 2026-04-23 16:22 | 60.58481 | 12.08199 | 19610 ft | 370 kts | 192° |
| 2026-04-23 16:22 | 60.55945 | 12.07413 | 19288 ft | 368 kts | 192° |
| 2026-04-23 16:22 | 60.53418 | 12.06632 | 18955 ft | 366 kts | 191° |
| 2026-04-23 16:22 | 60.50903 | 12.05855 | 18632 ft | 365 kts | 191° |
| 2026-04-23 16:23 | 60.48396 | 12.05083 | 18293 ft | 363 kts | 192° |
| 2026-04-23 16:23 | 60.45904 | 12.04316 | 17924 ft | 362 kts | 192° |
| 2026-04-23 16:23 | 60.43421 | 12.03553 | 17574 ft | 360 kts | 192° |
| 2026-04-23 16:23 | 60.40957 | 12.02797 | 17232 ft | 358 kts | 192° |
| 2026-04-23 16:24 | 60.38497 | 12.02043 | 16892 ft | 356 kts | 192° |
| 2026-04-23 16:24 | 60.36047 | 12.01293 | 16553 ft | 354 kts | 192° |
| 2026-04-23 16:24 | 60.33610 | 12.00549 | 16218 ft | 353 kts | 192° |
| 2026-04-23 16:24 | 60.31193 | 11.99811 | 15887 ft | 351 kts | 192° |
| 2026-04-23 16:25 | 60.28780 | 11.99075 | 15562 ft | 349 kts | 192° |
| 2026-04-23 16:25 | 60.26381 | 11.98345 | 15238 ft | 348 kts | 192° |
| 2026-04-23 16:25 | 60.23991 | 11.97620 | 14930 ft | 346 kts | 192° |
| 2026-04-23 16:25 | 60.21615 | 11.96856 | 14620 ft | 344 kts | 196° |
| 2026-04-23 16:26 | 60.19380 | 11.95461 | 14278 ft | 339 kts | 206° |
| 2026-04-23 16:26 | 60.17205 | 11.93674 | 13959 ft | 337 kts | 207° |
| 2026-04-23 16:26 | 60.15046 | 11.91858 | 13631 ft | 336 kts | 207° |
| 2026-04-23 16:26 | 60.12888 | 11.90103 | 13368 ft | 332 kts | 206° |
| 2026-04-23 16:27 | 60.10766 | 11.88442 | 13241 ft | 323 kts | 206° |
| 2026-04-23 16:27 | 60.08686 | 11.86843 | 13026 ft | 319 kts | 206° |
| 2026-04-23 16:27 | 60.06616 | 11.85258 | 12701 ft | 318 kts | 205° |
| 2026-04-23 16:27 | 60.04548 | 11.83678 | 12388 ft | 317 kts | 205° |
| 2026-04-23 16:28 | 60.02488 | 11.82106 | 12082 ft | 316 kts | 205° |
| 2026-04-23 16:28 | 60.00442 | 11.80548 | 11803 ft | 314 kts | 205° |
| 2026-04-23 16:28 | 59.98406 | 11.78996 | 11532 ft | 313 kts | 205° |
| 2026-04-23 16:28 | 59.96372 | 11.77450 | 11288 ft | 310 kts | 205° |
| 2026-04-23 16:29 | 59.94391 | 11.75949 | 11201 ft | 300 kts | 205° |
| 2026-04-23 16:29 | 59.92460 | 11.74499 | 11067 ft | 294 kts | 203° |
| 2026-04-23 16:29 | 59.90490 | 11.73521 | 10898 ft | 291 kts | 191° |
| 2026-04-23 16:29 | 59.88490 | 11.72942 | 10664 ft | 289 kts | 192° |
| 2026-04-23 16:30 | 59.86505 | 11.72262 | 10410 ft | 288 kts | 193° |
| 2026-04-23 16:30 | 59.84540 | 11.71548 | 10164 ft | 287 kts | 193° |
| 2026-04-23 16:30 | 59.82604 | 11.70833 | 9911 ft | 286 kts | 193° |
| 2026-04-23 16:30 | 59.80710 | 11.69730 | 9616 ft | 281 kts | 213° |
| 2026-04-23 16:31 | 59.79093 | 11.67660 | 9363 ft | 275 kts | 218° |
| 2026-04-23 16:31 | 59.77459 | 11.65663 | 9137 ft | 275 kts | 215° |
| 2026-04-23 16:31 | 59.75811 | 11.63756 | 9101 ft | 273 kts | 214° |
| 2026-04-23 16:31 | 59.74164 | 11.61862 | 9104 ft | 274 kts | 214° |
| 2026-04-23 16:32 | 59.72511 | 11.59953 | 9100 ft | 274 kts | 217° |
| 2026-04-23 16:32 | 59.71117 | 11.57499 | 9088 ft | 263 kts | 240° |
| 2026-04-23 16:32 | 59.70041 | 11.54572 | 9098 ft | 266 kts | 238° |
| 2026-04-23 16:32 | 59.68876 | 11.51707 | 9103 ft | 268 kts | 237° |
| 2026-04-23 16:33 | 59.67687 | 11.48852 | 9100 ft | 269 kts | 236° |
| 2026-04-23 16:33 | 59.66506 | 11.46029 | 9080 ft | 270 kts | 236° |
| 2026-04-23 16:33 | 59.65311 | 11.43162 | 9094 ft | 269 kts | 237° |
| 2026-04-23 16:33 | 59.64412 | 11.40005 | 9092 ft | 260 kts | 256° |
| 2026-04-23 16:34 | 59.63799 | 11.36650 | 9099 ft | 260 kts | 255° |
| 2026-04-23 16:34 | 59.63198 | 11.33294 | 9096 ft | 255 kts | 265° |
| 2026-04-23 16:34 | 59.63339 | 11.29991 | 9109 ft | 235 kts | 300° |
| 2026-04-23 16:34 | 59.64264 | 11.27398 | 8971 ft | 232 kts | 321° |
| 2026-04-23 16:35 | 59.65596 | 11.25621 | 8770 ft | 230 kts | 340° |
| 2026-04-23 16:35 | 59.67113 | 11.24727 | 8576 ft | 226 kts | 347° |
| 2026-04-23 16:35 | 59.68622 | 11.23954 | 8372 ft | 222 kts | 346° |
| 2026-04-23 16:35 | 59.70102 | 11.23194 | 8186 ft | 218 kts | 346° |
| 2026-04-23 16:36 | 59.71558 | 11.22444 | 7999 ft | 215 kts | 346° |
| 2026-04-23 16:36 | 59.72982 | 11.21707 | 7827 ft | 213 kts | 346° |
| 2026-04-23 16:36 | 59.74414 | 11.20963 | 7651 ft | 212 kts | 345° |
| 2026-04-23 16:36 | 59.75847 | 11.20216 | 7384 ft | 214 kts | 346° |
| 2026-04-23 16:37 | 59.77279 | 11.19467 | 7212 ft | 213 kts | 346° |
| 2026-04-23 16:37 | 59.78720 | 11.18712 | 7032 ft | 213 kts | 345° |
| 2026-04-23 16:37 | 59.80155 | 11.17959 | 6854 ft | 214 kts | 345° |
| 2026-04-23 16:37 | 59.81600 | 11.17200 | 6684 ft | 215 kts | 345° |
| 2026-04-23 16:38 | 59.83051 | 11.16435 | 6499 ft | 217 kts | 345° |
| 2026-04-23 16:38 | 59.84519 | 11.15661 | 6313 ft | 219 kts | 345° |
| 2026-04-23 16:38 | 59.85997 | 11.14882 | 6106 ft | 220 kts | 345° |
| 2026-04-23 16:38 | 59.87471 | 11.14103 | 5919 ft | 219 kts | 345° |
| 2026-04-23 16:39 | 59.88927 | 11.13333 | 5739 ft | 219 kts | 345° |
| 2026-04-23 16:39 | 59.90400 | 11.12554 | 5559 ft | 219 kts | 345° |
| 2026-04-23 16:39 | 59.91868 | 11.11766 | 5376 ft | 218 kts | 342° |
| 2026-04-23 16:39 | 59.93153 | 11.10206 | 5168 ft | 220 kts | 313° |
| 2026-04-23 16:40 | 59.94105 | 11.07846 | 5022 ft | 218 kts | 314° |
| 2026-04-23 16:40 | 59.95135 | 11.05637 | 4843 ft | 217 kts | 315° |
| 2026-04-23 16:40 | 59.96165 | 11.03422 | 4651 ft | 217 kts | 315° |
| 2026-04-23 16:40 | 59.97171 | 11.01232 | 4522 ft | 210 kts | 315° |
| 2026-04-23 16:41 | 59.97816 | 10.99821 | 4504 ft | 207 kts | 314° |
| 2026-04-23 16:41 | 59.98808 | 10.97758 | 4490 ft | 206 kts | 323° |
| 2026-04-23 16:41 | 60.00120 | 10.96779 | 4372 ft | 207 kts | 2° |
| 2026-04-23 16:41 | 60.01514 | 10.97648 | 4158 ft | 215 kts | 21° |
| 2026-04-23 16:42 | 60.02943 | 10.98533 | 3852 ft | 215 kts | 7° |